sensor_id;sensor_type;location;lat;lon;timestamp;temperature;humidity
57088;DHT22;42965;52.846;6.614;2023-02-28T00:00:26;4.20;99.90
57088;DHT22;42965;52.846;6.614;2023-02-28T00:02:52;4.20;99.90
57088;DHT22;42965;52.846;6.614;2023-02-28T00:05:23;4.20;99.90
57088;DHT22;42965;52.846;6.614;2023-02-28T00:07:50;4.30;99.90
57088;DHT22;42965;52.846;6.614;2023-02-28T00:10:19;4.30;99.90
57088;DHT22;42965;52.846;6.614;2023-02-28T00:13:00;4.20;99.90
57088;DHT22;42965;52.846;6.614;2023-02-28T00:15:26;4.30;99.90
57088;DHT22;42965;52.846;6.614;2023-02-28T00:17:53;4.30;99.90
57088;DHT22;42965;52.846;6.614;2023-02-28T00:20:19;4.30;99.90
57088;DHT22;42965;52.846;6.614;2023-02-28T00:22:48;4.30;99.90
57088;DHT22;42965;52.846;6.614;2023-02-28T00:25:18;4.30;99.90
57088;DHT22;42965;52.846;6.614;2023-02-28T00:27:45;4.30;99.90
57088;DHT22;42965;52.846;6.614;2023-02-28T00:30:15;4.30;99.90
57088;DHT22;42965;52.846;6.614;2023-02-28T00:32:43;4.30;99.90
57088;DHT22;42965;52.846;6.614;2023-02-28T00:35:10;4.30;99.90
57088;DHT22;42965;52.846;6.614;2023-02-28T00:37:37;4.40;99.90
57088;DHT22;42965;52.846;6.614;2023-02-28T00:40:06;4.30;99.90
57088;DHT22;42965;52.846;6.614;2023-02-28T00:42:33;4.40;99.90
57088;DHT22;42965;52.846;6.614;2023-02-28T00:45:00;4.30;99.90
57088;DHT22;42965;52.846;6.614;2023-02-28T00:47:27;4.30;99.90
57088;DHT22;42965;52.846;6.614;2023-02-28T00:49:53;4.30;99.90
57088;DHT22;42965;52.846;6.614;2023-02-28T00:52:20;4.40;99.90
57088;DHT22;42965;52.846;6.614;2023-02-28T00:54:47;4.40;99.90
57088;DHT22;42965;52.846;6.614;2023-02-28T00:57:14;4.40;99.90
57088;DHT22;42965;52.846;6.614;2023-02-28T00:59:40;4.30;99.90
57088;DHT22;42965;52.846;6.614;2023-02-28T01:02:07;4.30;99.90
57088;DHT22;42965;52.846;6.614;2023-02-28T01:04:33;4.30;99.90
57088;DHT22;42965;52.846;6.614;2023-02-28T01:07:03;4.30;99.90
57088;DHT22;42965;52.846;6.614;2023-02-28T01:09:29;4.30;99.90
57088;DHT22;42965;52.846;6.614;2023-02-28T01:11:56;4.30;99.90
57088;DHT22;42965;52.846;6.614;2023-02-28T01:14:22;4.30;99.90
57088;DHT22;42965;52.846;6.614;2023-02-28T01:16:48;4.30;99.90
57088;DHT22;42965;52.846;6.614;2023-02-28T01:19:15;4.30;99.90
57088;DHT22;42965;52.846;6.614;2023-02-28T01:21:42;4.30;99.90
57088;DHT22;42965;52.846;6.614;2023-02-28T01:24:08;4.30;99.90
57088;DHT22;42965;52.846;6.614;2023-02-28T01:26:35;4.40;99.90
57088;DHT22;42965;52.846;6.614;2023-02-28T01:29:01;4.30;99.90
57088;DHT22;42965;52.846;6.614;2023-02-28T01:31:28;4.30;99.90
57088;DHT22;42965;52.846;6.614;2023-02-28T01:33:57;4.30;99.90
57088;DHT22;42965;52.846;6.614;2023-02-28T01:36:28;4.30;99.90
57088;DHT22;42965;52.846;6.614;2023-02-28T01:38:55;4.30;99.90
57088;DHT22;42965;52.846;6.614;2023-02-28T01:41:29;4.30;99.90
57088;DHT22;42965;52.846;6.614;2023-02-28T01:44:53;4.30;99.90
57088;DHT22;42965;52.846;6.614;2023-02-28T01:46:51;4.30;99.90
57088;DHT22;42965;52.846;6.614;2023-02-28T01:49:18;4.30;99.90
57088;DHT22;42965;52.846;6.614;2023-02-28T01:51:48;4.30;99.90
57088;DHT22;42965;52.846;6.614;2023-02-28T01:54:29;4.20;99.90
57088;DHT22;42965;52.846;6.614;2023-02-28T01:57:10;4.30;99.90
57088;DHT22;42965;52.846;6.614;2023-02-28T01:59:40;4.20;99.90
57088;DHT22;42965;52.846;6.614;2023-02-28T02:02:28;4.20;99.90
57088;DHT22;42965;52.846;6.614;2023-02-28T02:05:43;4.20;99.90
57088;DHT22;42965;52.846;6.614;2023-02-28T02:08:15;4.20;99.90
57088;DHT22;42965;52.846;6.614;2023-02-28T02:10:45;4.10;99.90
57088;DHT22;42965;52.846;6.614;2023-02-28T02:13:43;4.10;99.90
57088;DHT22;42965;52.846;6.614;2023-02-28T02:16:34;4.10;99.90
57088;DHT22;42965;52.846;6.614;2023-02-28T02:22:36;4.10;99.90
57088;DHT22;42965;52.846;6.614;2023-02-28T02:25:22;4.10;99.90
57088;DHT22;42965;52.846;6.614;2023-02-28T02:35:56;4.00;99.90
57088;DHT22;42965;52.846;6.614;2023-02-28T02:38:42;4.00;99.90
57088;DHT22;42965;52.846;6.614;2023-02-28T02:41:34;4.00;99.90
57088;DHT22;42965;52.846;6.614;2023-02-28T02:47:10;3.90;99.90
57088;DHT22;42965;52.846;6.614;2023-02-28T02:49:40;3.90;99.90
57088;DHT22;42965;52.846;6.614;2023-02-28T02:52:11;3.90;99.90
57088;DHT22;42965;52.846;6.614;2023-02-28T02:54:48;3.90;99.90
57088;DHT22;42965;52.846;6.614;2023-02-28T02:57:26;3.80;99.90
57088;DHT22;42965;52.846;6.614;2023-02-28T02:59:54;3.80;99.90
57088;DHT22;42965;52.846;6.614;2023-02-28T03:02:22;3.80;99.90
57088;DHT22;42965;52.846;6.614;2023-02-28T03:04:53;3.80;99.90
57088;DHT22;42965;52.846;6.614;2023-02-28T03:07:27;3.80;99.90
57088;DHT22;42965;52.846;6.614;2023-02-28T03:09:55;3.80;99.90
57088;DHT22;42965;52.846;6.614;2023-02-28T03:12:51;3.70;99.90
57088;DHT22;42965;52.846;6.614;2023-02-28T03:15:27;3.70;99.90
57088;DHT22;42965;52.846;6.614;2023-02-28T03:18:04;3.70;99.90
57088;DHT22;42965;52.846;6.614;2023-02-28T03:23:24;3.60;99.90
57088;DHT22;42965;52.846;6.614;2023-02-28T03:26:04;3.60;99.90
57088;DHT22;42965;52.846;6.614;2023-02-28T03:28:48;3.60;99.90
57088;DHT22;42965;52.846;6.614;2023-02-28T03:33:54;3.50;99.90
57088;DHT22;42965;52.846;6.614;2023-02-28T03:36:53;3.40;99.90
57088;DHT22;42965;52.846;6.614;2023-02-28T03:39:32;3.40;99.90
57088;DHT22;42965;52.846;6.614;2023-02-28T03:42:21;3.40;99.90
57088;DHT22;42965;52.846;6.614;2023-02-28T03:44:57;3.40;99.90
57088;DHT22;42965;52.846;6.614;2023-02-28T03:47:39;3.40;99.90
57088;DHT22;42965;52.846;6.614;2023-02-28T03:50:26;3.40;99.90
57088;DHT22;42965;52.846;6.614;2023-02-28T03:53:01;3.40;99.90
57088;DHT22;42965;52.846;6.614;2023-02-28T03:55:37;3.40;99.90
57088;DHT22;42965;52.846;6.614;2023-02-28T04:00:49;3.40;99.90
57088;DHT22;42965;52.846;6.614;2023-02-28T04:03:16;3.40;99.90
57088;DHT22;42965;52.846;6.614;2023-02-28T04:06:00;3.40;99.90
57088;DHT22;42965;52.846;6.614;2023-02-28T04:08:27;3.40;99.90
57088;DHT22;42965;52.846;6.614;2023-02-28T04:11:24;3.40;99.90
57088;DHT22;42965;52.846;6.614;2023-02-28T04:13:56;3.40;99.90
57088;DHT22;42965;52.846;6.614;2023-02-28T04:16:22;3.40;99.90
57088;DHT22;42965;52.846;6.614;2023-02-28T04:18:48;3.40;99.90
57088;DHT22;42965;52.846;6.614;2023-02-28T04:21:15;3.40;99.90
57088;DHT22;42965;52.846;6.614;2023-02-28T04:23:41;3.40;99.90
57088;DHT22;42965;52.846;6.614;2023-02-28T04:26:07;3.40;99.90
57088;DHT22;42965;52.846;6.614;2023-02-28T04:28:34;3.40;99.90
57088;DHT22;42965;52.846;6.614;2023-02-28T04:31:04;3.40;99.90
57088;DHT22;42965;52.846;6.614;2023-02-28T04:33:32;3.30;99.90
57088;DHT22;42965;52.846;6.614;2023-02-28T04:36:07;3.40;99.90
57088;DHT22;42965;52.846;6.614;2023-02-28T04:38:36;3.30;99.90
57088;DHT22;42965;52.846;6.614;2023-02-28T04:41:03;3.30;99.90
57088;DHT22;42965;52.846;6.614;2023-02-28T04:43:30;3.30;99.90
57088;DHT22;42965;52.846;6.614;2023-02-28T04:45:58;3.30;99.90
57088;DHT22;42965;52.846;6.614;2023-02-28T04:48:31;3.30;99.90
57088;DHT22;42965;52.846;6.614;2023-02-28T04:51:05;3.30;99.90
57088;DHT22;42965;52.846;6.614;2023-02-28T04:53:32;3.30;99.90
57088;DHT22;42965;52.846;6.614;2023-02-28T04:55:59;3.30;99.90
57088;DHT22;42965;52.846;6.614;2023-02-28T04:58:25;3.30;99.90
57088;DHT22;42965;52.846;6.614;2023-02-28T05:00:52;3.30;99.90
57088;DHT22;42965;52.846;6.614;2023-02-28T05:03:19;3.20;99.90
57088;DHT22;42965;52.846;6.614;2023-02-28T05:05:47;3.20;99.90
57088;DHT22;42965;52.846;6.614;2023-02-28T05:08:14;3.20;99.90
57088;DHT22;42965;52.846;6.614;2023-02-28T05:10:40;3.20;99.90
57088;DHT22;42965;52.846;6.614;2023-02-28T05:13:08;3.20;99.90
57088;DHT22;42965;52.846;6.614;2023-02-28T05:15:35;3.20;99.90
57088;DHT22;42965;52.846;6.614;2023-02-28T05:18:01;3.10;99.90
57088;DHT22;42965;52.846;6.614;2023-02-28T05:20:27;3.10;99.90
57088;DHT22;42965;52.846;6.614;2023-02-28T05:22:54;3.10;99.90
57088;DHT22;42965;52.846;6.614;2023-02-28T05:25:21;3.10;99.90
57088;DHT22;42965;52.846;6.614;2023-02-28T05:27:49;3.10;99.90
57088;DHT22;42965;52.846;6.614;2023-02-28T05:30:16;3.10;99.90
57088;DHT22;42965;52.846;6.614;2023-02-28T05:32:42;3.10;99.90
57088;DHT22;42965;52.846;6.614;2023-02-28T05:35:10;3.10;99.90
57088;DHT22;42965;52.846;6.614;2023-02-28T05:37:39;3.00;99.90
57088;DHT22;42965;52.846;6.614;2023-02-28T05:40:07;3.10;99.90
57088;DHT22;42965;52.846;6.614;2023-02-28T05:42:38;3.10;99.90
57088;DHT22;42965;52.846;6.614;2023-02-28T05:45:05;3.10;99.90
57088;DHT22;42965;52.846;6.614;2023-02-28T05:47:33;3.00;99.90
57088;DHT22;42965;52.846;6.614;2023-02-28T05:49:59;3.10;99.90
57088;DHT22;42965;52.846;6.614;2023-02-28T05:52:27;3.10;99.90
57088;DHT22;42965;52.846;6.614;2023-02-28T05:54:56;3.10;99.90
57088;DHT22;42965;52.846;6.614;2023-02-28T05:57:23;3.10;99.90
57088;DHT22;42965;52.846;6.614;2023-02-28T05:59:49;3.10;99.90
57088;DHT22;42965;52.846;6.614;2023-02-28T06:02:16;3.00;99.90
57088;DHT22;42965;52.846;6.614;2023-02-28T06:04:43;3.00;99.90
57088;DHT22;42965;52.846;6.614;2023-02-28T06:07:10;3.00;99.90
57088;DHT22;42965;52.846;6.614;2023-02-28T06:09:37;3.00;99.90
57088;DHT22;42965;52.846;6.614;2023-02-28T06:12:05;3.00;99.90
57088;DHT22;42965;52.846;6.614;2023-02-28T06:14:33;3.00;99.90
57088;DHT22;42965;52.846;6.614;2023-02-28T06:17:00;2.90;99.90
57088;DHT22;42965;52.846;6.614;2023-02-28T06:19:27;2.90;99.90
57088;DHT22;42965;52.846;6.614;2023-02-28T06:21:55;2.90;99.90
57088;DHT22;42965;52.846;6.614;2023-02-28T06:24:24;2.80;99.90
57088;DHT22;42965;52.846;6.614;2023-02-28T06:26:51;2.80;99.90
57088;DHT22;42965;52.846;6.614;2023-02-28T06:29:17;2.80;99.90
57088;DHT22;42965;52.846;6.614;2023-02-28T06:31:45;2.80;99.90
57088;DHT22;42965;52.846;6.614;2023-02-28T06:34:13;2.80;99.90
57088;DHT22;42965;52.846;6.614;2023-02-28T06:36:43;2.80;99.90
57088;DHT22;42965;52.846;6.614;2023-02-28T06:39:09;2.80;99.90
57088;DHT22;42965;52.846;6.614;2023-02-28T06:41:37;2.80;99.90
57088;DHT22;42965;52.846;6.614;2023-02-28T06:44:13;2.80;99.90
57088;DHT22;42965;52.846;6.614;2023-02-28T06:46:41;2.80;99.90
57088;DHT22;42965;52.846;6.614;2023-02-28T06:49:08;2.80;99.90
57088;DHT22;42965;52.846;6.614;2023-02-28T06:51:39;2.80;99.90
57088;DHT22;42965;52.846;6.614;2023-02-28T06:54:05;2.90;99.90
57088;DHT22;42965;52.846;6.614;2023-02-28T06:56:35;2.90;99.90
57088;DHT22;42965;52.846;6.614;2023-02-28T06:59:04;2.90;99.90
57088;DHT22;42965;52.846;6.614;2023-02-28T07:01:33;2.90;99.90
57088;DHT22;42965;52.846;6.614;2023-02-28T07:04:01;2.90;99.90
57088;DHT22;42965;52.846;6.614;2023-02-28T07:06:28;2.90;99.90
57088;DHT22;42965;52.846;6.614;2023-02-28T07:08:54;2.90;99.90
57088;DHT22;42965;52.846;6.614;2023-02-28T07:11:26;2.90;99.90
57088;DHT22;42965;52.846;6.614;2023-02-28T07:13:54;2.90;99.90
57088;DHT22;42965;52.846;6.614;2023-02-28T07:16:23;2.90;99.90
57088;DHT22;42965;52.846;6.614;2023-02-28T07:18:51;2.90;99.90
57088;DHT22;42965;52.846;6.614;2023-02-28T07:21:18;2.90;99.90
57088;DHT22;42965;52.846;6.614;2023-02-28T07:23:44;3.00;99.90
57088;DHT22;42965;52.846;6.614;2023-02-28T07:26:14;3.00;99.90
57088;DHT22;42965;52.846;6.614;2023-02-28T07:28:42;3.00;99.90
57088;DHT22;42965;52.846;6.614;2023-02-28T07:31:10;3.00;99.90
57088;DHT22;42965;52.846;6.614;2023-02-28T07:33:37;3.10;99.90
57088;DHT22;42965;52.846;6.614;2023-02-28T07:36:06;3.10;99.90
57088;DHT22;42965;52.846;6.614;2023-02-28T07:38:36;3.20;99.90
57088;DHT22;42965;52.846;6.614;2023-02-28T07:41:04;3.20;99.90
57088;DHT22;42965;52.846;6.614;2023-02-28T07:43:32;3.40;99.90
57088;DHT22;42965;52.846;6.614;2023-02-28T07:46:07;3.60;99.90
57088;DHT22;42965;52.846;6.614;2023-02-28T07:48:34;3.80;99.90
57088;DHT22;42965;52.846;6.614;2023-02-28T07:51:01;3.90;99.90
57088;DHT22;42965;52.846;6.614;2023-02-28T07:53:28;3.90;99.90
57088;DHT22;42965;52.846;6.614;2023-02-28T07:55:56;4.00;99.90
57088;DHT22;42965;52.846;6.614;2023-02-28T07:58:24;4.10;99.90
57088;DHT22;42965;52.846;6.614;2023-02-28T08:00:51;4.10;99.90
57088;DHT22;42965;52.846;6.614;2023-02-28T08:03:19;4.10;99.90
57088;DHT22;42965;52.846;6.614;2023-02-28T08:05:50;4.20;99.90
57088;DHT22;42965;52.846;6.614;2023-02-28T08:08:18;4.50;99.90
57088;DHT22;42965;52.846;6.614;2023-02-28T08:10:44;4.70;99.90
57088;DHT22;42965;52.846;6.614;2023-02-28T08:13:11;4.80;99.90
57088;DHT22;42965;52.846;6.614;2023-02-28T08:15:37;4.80;99.90
57088;DHT22;42965;52.846;6.614;2023-02-28T08:18:05;4.90;99.90
57088;DHT22;42965;52.846;6.614;2023-02-28T08:20:31;4.90;99.90
57088;DHT22;42965;52.846;6.614;2023-02-28T08:22:59;4.80;99.90
57088;DHT22;42965;52.846;6.614;2023-02-28T08:25:26;4.80;99.90
57088;DHT22;42965;52.846;6.614;2023-02-28T08:27:52;4.80;99.90
57088;DHT22;42965;52.846;6.614;2023-02-28T08:30:19;4.80;99.90
57088;DHT22;42965;52.846;6.614;2023-02-28T08:32:46;4.90;99.90
57088;DHT22;42965;52.846;6.614;2023-02-28T08:35:16;4.90;99.90
57088;DHT22;42965;52.846;6.614;2023-02-28T08:37:42;4.90;99.90
57088;DHT22;42965;52.846;6.614;2023-02-28T08:40:09;4.90;99.90
57088;DHT22;42965;52.846;6.614;2023-02-28T08:42:36;5.00;99.90
57088;DHT22;42965;52.846;6.614;2023-02-28T08:45:03;5.00;99.90
57088;DHT22;42965;52.846;6.614;2023-02-28T08:47:30;5.10;99.90
57088;DHT22;42965;52.846;6.614;2023-02-28T08:49:57;5.30;99.90
57088;DHT22;42965;52.846;6.614;2023-02-28T08:52:23;5.40;99.90
57088;DHT22;42965;52.846;6.614;2023-02-28T08:54:52;5.80;99.90
57088;DHT22;42965;52.846;6.614;2023-02-28T08:57:18;6.10;99.90
57088;DHT22;42965;52.846;6.614;2023-02-28T08:59:44;6.30;99.90
57088;DHT22;42965;52.846;6.614;2023-02-28T09:02:14;6.80;99.90
57088;DHT22;42965;52.846;6.614;2023-02-28T09:04:41;7.70;99.90
57088;DHT22;42965;52.846;6.614;2023-02-28T09:07:07;7.90;99.90
57088;DHT22;42965;52.846;6.614;2023-02-28T09:09:38;8.40;99.90
57088;DHT22;42965;52.846;6.614;2023-02-28T09:12:23;8.40;99.90
57088;DHT22;42965;52.846;6.614;2023-02-28T09:14:50;8.60;99.90
57088;DHT22;42965;52.846;6.614;2023-02-28T09:17:17;9.00;99.90
57088;DHT22;42965;52.846;6.614;2023-02-28T09:19:44;8.70;99.90
57088;DHT22;42965;52.846;6.614;2023-02-28T09:22:11;8.80;99.90
57088;DHT22;42965;52.846;6.614;2023-02-28T09:24:38;9.40;99.90
57088;DHT22;42965;52.846;6.614;2023-02-28T09:27:05;9.40;99.90
57088;DHT22;42965;52.846;6.614;2023-02-28T09:29:33;9.90;99.90
57088;DHT22;42965;52.846;6.614;2023-02-28T09:32:03;10.00;99.90
57088;DHT22;42965;52.846;6.614;2023-02-28T09:34:32;10.20;99.90
57088;DHT22;42965;52.846;6.614;2023-02-28T09:36:58;9.60;99.90
57088;DHT22;42965;52.846;6.614;2023-02-28T09:39:25;9.60;99.90
57088;DHT22;42965;52.846;6.614;2023-02-28T09:41:54;9.60;99.90
57088;DHT22;42965;52.846;6.614;2023-02-28T09:46:53;9.10;99.90
57088;DHT22;42965;52.846;6.614;2023-02-28T09:49:24;8.70;99.90
57088;DHT22;42965;52.846;6.614;2023-02-28T09:51:58;8.80;99.90
57088;DHT22;42965;52.846;6.614;2023-02-28T09:54:30;10.00;99.90
57088;DHT22;42965;52.846;6.614;2023-02-28T09:57:06;11.00;99.90
57088;DHT22;42965;52.846;6.614;2023-02-28T10:05:16;13.20;71.80
57088;DHT22;42965;52.846;6.614;2023-02-28T10:08:08;13.20;70.60
57088;DHT22;42965;52.846;6.614;2023-02-28T10:10:44;13.50;75.60
57088;DHT22;42965;52.846;6.614;2023-02-28T10:16:10;13.70;64.80
57088;DHT22;42965;52.846;6.614;2023-02-28T10:18:52;13.80;62.70
57088;DHT22;42965;52.846;6.614;2023-02-28T10:21:28;13.80;63.20
57088;DHT22;42965;52.846;6.614;2023-02-28T10:24:03;14.60;61.40
57088;DHT22;42965;52.846;6.614;2023-02-28T10:26:33;14.60;60.40
57088;DHT22;42965;52.846;6.614;2023-02-28T10:28:59;14.70;63.10
57088;DHT22;42965;52.846;6.614;2023-02-28T10:31:26;15.10;60.80
57088;DHT22;42965;52.846;6.614;2023-02-28T10:33:52;15.70;59.80
57088;DHT22;42965;52.846;6.614;2023-02-28T10:36:20;15.60;57.60
57088;DHT22;42965;52.846;6.614;2023-02-28T10:38:52;14.60;58.10
57088;DHT22;42965;52.846;6.614;2023-02-28T10:44:23;15.10;55.00
57088;DHT22;42965;52.846;6.614;2023-02-28T10:46:51;15.70;54.10
57088;DHT22;42965;52.846;6.614;2023-02-28T10:49:22;15.60;53.90
57088;DHT22;42965;52.846;6.614;2023-02-28T10:51:55;15.20;52.50
57088;DHT22;42965;52.846;6.614;2023-02-28T10:54:30;15.50;51.90
57088;DHT22;42965;52.846;6.614;2023-02-28T10:57:17;15.10;50.80
57088;DHT22;42965;52.846;6.614;2023-02-28T10:59:45;15.10;49.70
57088;DHT22;42965;52.846;6.614;2023-02-28T11:02:35;15.60;51.10
57088;DHT22;42965;52.846;6.614;2023-02-28T11:05:32;16.50;49.00
57088;DHT22;42965;52.846;6.614;2023-02-28T11:08:12;16.50;48.20
57088;DHT22;42965;52.846;6.614;2023-02-28T11:10:48;16.20;50.50
57088;DHT22;42965;52.846;6.614;2023-02-28T11:13:21;16.90;49.70
57088;DHT22;42965;52.846;6.614;2023-02-28T11:15:56;16.60;47.40
57088;DHT22;42965;52.846;6.614;2023-02-28T11:18:30;17.10;48.60
57088;DHT22;42965;52.846;6.614;2023-02-28T11:20:59;17.00;46.50
57088;DHT22;42965;52.846;6.614;2023-02-28T11:23:30;16.60;48.70
57088;DHT22;42965;52.846;6.614;2023-02-28T11:26:01;17.10;47.50
57088;DHT22;42965;52.846;6.614;2023-02-28T11:28:41;17.00;46.60
57088;DHT22;42965;52.846;6.614;2023-02-28T11:33:54;17.20;47.80
57088;DHT22;42965;52.846;6.614;2023-02-28T11:38:52;17.10;44.60
57088;DHT22;42965;52.846;6.614;2023-02-28T11:41:34;17.30;47.00
57088;DHT22;42965;52.846;6.614;2023-02-28T11:44:29;17.70;45.10
57088;DHT22;42965;52.846;6.614;2023-02-28T11:47:07;17.90;46.90
57088;DHT22;42965;52.846;6.614;2023-02-28T11:52:45;17.30;45.20
57088;DHT22;42965;52.846;6.614;2023-02-28T11:55:24;16.70;47.20
57088;DHT22;42965;52.846;6.614;2023-02-28T12:01:26;17.00;45.40
57088;DHT22;42965;52.846;6.614;2023-02-28T12:07:07;17.60;44.80
57088;DHT22;42965;52.846;6.614;2023-02-28T12:13:26;18.60;42.20
57088;DHT22;42965;52.846;6.614;2023-02-28T12:23:46;16.80;44.00
57088;DHT22;42965;52.846;6.614;2023-02-28T12:26:38;16.80;43.30
57088;DHT22;42965;52.846;6.614;2023-02-28T12:29:14;16.80;43.10
57088;DHT22;42965;52.846;6.614;2023-02-28T12:32:01;16.70;44.30
57088;DHT22;42965;52.846;6.614;2023-02-28T12:34:33;17.10;42.00
57088;DHT22;42965;52.846;6.614;2023-02-28T12:37:07;17.00;43.30
57088;DHT22;42965;52.846;6.614;2023-02-28T12:39:37;17.30;43.00
57088;DHT22;42965;52.846;6.614;2023-02-28T12:42:19;17.00;40.70
57088;DHT22;42965;52.846;6.614;2023-02-28T12:44:56;17.20;41.50
57088;DHT22;42965;52.846;6.614;2023-02-28T12:47:25;17.70;41.50
57088;DHT22;42965;52.846;6.614;2023-02-28T12:50:09;17.10;41.30
57088;DHT22;42965;52.846;6.614;2023-02-28T12:55:42;18.10;43.80
57088;DHT22;42965;52.846;6.614;2023-02-28T13:03:44;18.20;40.80
57088;DHT22;42965;52.846;6.614;2023-02-28T13:09:12;17.60;41.20
57088;DHT22;42965;52.846;6.614;2023-02-28T13:11:51;17.80;40.20
57088;DHT22;42965;52.846;6.614;2023-02-28T13:17:09;17.10;39.90
57088;DHT22;42965;52.846;6.614;2023-02-28T13:19:42;17.50;40.80
57088;DHT22;42965;52.846;6.614;2023-02-28T13:22:19;17.60;42.20
57088;DHT22;42965;52.846;6.614;2023-02-28T13:29:43;18.20;39.40
57088;DHT22;42965;52.846;6.614;2023-02-28T13:39:58;19.00;38.80
57088;DHT22;42965;52.846;6.614;2023-02-28T13:42:48;18.70;39.70
57088;DHT22;42965;52.846;6.614;2023-02-28T13:45:28;19.10;39.70
57088;DHT22;42965;52.846;6.614;2023-02-28T13:48:05;18.50;38.70
57088;DHT22;42965;52.846;6.614;2023-02-28T13:50:42;19.50;39.10
57088;DHT22;42965;52.846;6.614;2023-02-28T13:58:53;17.90;37.70
57088;DHT22;42965;52.846;6.614;2023-02-28T14:07:26;18.00;39.30
57088;DHT22;42965;52.846;6.614;2023-02-28T14:10:04;17.60;39.70
57088;DHT22;42965;52.846;6.614;2023-02-28T14:12:55;17.30;38.80
57088;DHT22;42965;52.846;6.614;2023-02-28T14:15:43;17.30;39.80
57088;DHT22;42965;52.846;6.614;2023-02-28T14:18:34;18.00;40.30
57088;DHT22;42965;52.846;6.614;2023-02-28T14:27:14;18.60;37.60
57088;DHT22;42965;52.846;6.614;2023-02-28T14:38:35;19.10;40.70
57088;DHT22;42965;52.846;6.614;2023-02-28T14:41:06;19.00;39.30
57088;DHT22;42965;52.846;6.614;2023-02-28T14:43:51;18.60;39.20
57088;DHT22;42965;52.846;6.614;2023-02-28T14:46:19;19.70;38.30
57088;DHT22;42965;52.846;6.614;2023-02-28T14:48:48;19.10;39.80
57088;DHT22;42965;52.846;6.614;2023-02-28T14:51:21;18.90;40.40
57088;DHT22;42965;52.846;6.614;2023-02-28T14:53:56;18.50;41.10
57088;DHT22;42965;52.846;6.614;2023-02-28T14:56:35;18.70;41.40
57088;DHT22;42965;52.846;6.614;2023-02-28T14:59:03;18.30;41.00
57088;DHT22;42965;52.846;6.614;2023-02-28T15:01:30;18.30;41.40
57088;DHT22;42965;52.846;6.614;2023-02-28T15:04:04;17.90;41.50
57088;DHT22;42965;52.846;6.614;2023-02-28T15:06:41;17.30;42.20
57088;DHT22;42965;52.846;6.614;2023-02-28T15:09:09;16.20;42.90
57088;DHT22;42965;52.846;6.614;2023-02-28T15:11:36;15.20;44.60
57088;DHT22;42965;52.846;6.614;2023-02-28T15:14:04;14.30;46.00
57088;DHT22;42965;52.846;6.614;2023-02-28T15:16:42;14.60;47.00
57088;DHT22;42965;52.846;6.614;2023-02-28T15:19:26;15.20;45.90
57088;DHT22;42965;52.846;6.614;2023-02-28T15:22:05;15.90;45.10
57088;DHT22;42965;52.846;6.614;2023-02-28T15:27:29;16.90;42.70
57088;DHT22;42965;52.846;6.614;2023-02-28T15:30:04;17.40;42.00
57088;DHT22;42965;52.846;6.614;2023-02-28T15:32:41;17.40;41.90
57088;DHT22;42965;52.846;6.614;2023-02-28T15:38:03;17.70;40.40
57088;DHT22;42965;52.846;6.614;2023-02-28T15:40:57;17.20;40.20
57088;DHT22;42965;52.846;6.614;2023-02-28T15:43:29;17.00;41.00
57088;DHT22;42965;52.846;6.614;2023-02-28T15:46:12;16.50;41.80
57088;DHT22;42965;52.846;6.614;2023-02-28T15:48:51;16.40;42.50
57088;DHT22;42965;52.846;6.614;2023-02-28T15:51:34;16.20;43.00
57088;DHT22;42965;52.846;6.614;2023-02-28T15:54:10;15.80;43.70
57088;DHT22;42965;52.846;6.614;2023-02-28T15:56:45;15.90;43.80
57088;DHT22;42965;52.846;6.614;2023-02-28T15:59:21;15.50;44.40
57088;DHT22;42965;52.846;6.614;2023-02-28T16:04:37;15.10;45.50
57088;DHT22;42965;52.846;6.614;2023-02-28T16:07:12;14.10;46.10
57088;DHT22;42965;52.846;6.614;2023-02-28T16:09:39;13.60;47.20
57088;DHT22;42965;52.846;6.614;2023-02-28T16:12:05;12.60;48.80
57088;DHT22;42965;52.846;6.614;2023-02-28T16:14:35;12.10;50.50
57088;DHT22;42965;52.846;6.614;2023-02-28T16:17:06;11.40;51.50
57088;DHT22;42965;52.846;6.614;2023-02-28T16:19:34;11.00;52.60
57088;DHT22;42965;52.846;6.614;2023-02-28T16:22:01;10.70;53.60
57088;DHT22;42965;52.846;6.614;2023-02-28T16:24:27;10.50;54.40
57088;DHT22;42965;52.846;6.614;2023-02-28T16:26:55;10.10;54.90
57088;DHT22;42965;52.846;6.614;2023-02-28T16:29:32;9.70;56.20
57088;DHT22;42965;52.846;6.614;2023-02-28T16:32:01;9.50;56.70
57088;DHT22;42965;52.846;6.614;2023-02-28T16:34:30;9.30;57.50
57088;DHT22;42965;52.846;6.614;2023-02-28T16:37:15;9.10;58.10
57088;DHT22;42965;52.846;6.614;2023-02-28T16:39:43;8.80;58.60
57088;DHT22;42965;52.846;6.614;2023-02-28T16:42:16;8.60;58.50
57088;DHT22;42965;52.846;6.614;2023-02-28T16:44:46;8.70;59.30
57088;DHT22;42965;52.846;6.614;2023-02-28T16:47:12;8.50;59.10
57088;DHT22;42965;52.846;6.614;2023-02-28T16:49:39;8.40;59.40
57088;DHT22;42965;52.846;6.614;2023-02-28T16:52:09;8.40;60.20
57088;DHT22;42965;52.846;6.614;2023-02-28T16:54:41;8.30;61.70
57088;DHT22;42965;52.846;6.614;2023-02-28T16:57:20;8.20;61.60
57088;DHT22;42965;52.846;6.614;2023-02-28T16:59:49;8.10;62.30
57088;DHT22;42965;52.846;6.614;2023-02-28T17:02:17;8.10;62.90
57088;DHT22;42965;52.846;6.614;2023-02-28T17:04:46;8.00;63.80
57088;DHT22;42965;52.846;6.614;2023-02-28T17:07:14;8.00;65.90
57088;DHT22;42965;52.846;6.614;2023-02-28T17:09:43;7.90;67.10
57088;DHT22;42965;52.846;6.614;2023-02-28T17:12:09;7.80;69.60
57088;DHT22;42965;52.846;6.614;2023-02-28T17:14:37;7.60;70.50
57088;DHT22;42965;52.846;6.614;2023-02-28T17:17:05;7.60;75.20
57088;DHT22;42965;52.846;6.614;2023-02-28T17:19:35;7.60;79.00
57088;DHT22;42965;52.846;6.614;2023-02-28T17:22:02;7.40;84.10
57088;DHT22;42965;52.846;6.614;2023-02-28T17:24:29;7.40;91.20
57088;DHT22;42965;52.846;6.614;2023-02-28T17:26:56;7.30;97.10
57088;DHT22;42965;52.846;6.614;2023-02-28T17:29:22;7.20;99.90
57088;DHT22;42965;52.846;6.614;2023-02-28T17:31:50;7.00;99.90
57088;DHT22;42965;52.846;6.614;2023-02-28T17:34:16;7.00;99.90
57088;DHT22;42965;52.846;6.614;2023-02-28T17:36:47;7.00;99.90
57088;DHT22;42965;52.846;6.614;2023-02-28T17:39:16;6.90;99.90
57088;DHT22;42965;52.846;6.614;2023-02-28T17:41:54;6.70;99.90
57088;DHT22;42965;52.846;6.614;2023-02-28T17:44:21;6.60;99.90
57088;DHT22;42965;52.846;6.614;2023-02-28T17:46:48;6.50;99.90
57088;DHT22;42965;52.846;6.614;2023-02-28T17:49:19;6.40;99.90
57088;DHT22;42965;52.846;6.614;2023-02-28T17:51:46;6.30;99.90
57088;DHT22;42965;52.846;6.614;2023-02-28T17:54:14;6.20;99.90
57088;DHT22;42965;52.846;6.614;2023-02-28T17:56:41;6.10;99.90
57088;DHT22;42965;52.846;6.614;2023-02-28T17:59:10;6.00;99.90
57088;DHT22;42965;52.846;6.614;2023-02-28T18:01:45;5.90;99.90
57088;DHT22;42965;52.846;6.614;2023-02-28T18:04:12;5.80;99.90
57088;DHT22;42965;52.846;6.614;2023-02-28T18:06:40;5.80;99.90
57088;DHT22;42965;52.846;6.614;2023-02-28T18:09:14;5.70;99.90
57088;DHT22;42965;52.846;6.614;2023-02-28T18:11:41;5.60;99.90
57088;DHT22;42965;52.846;6.614;2023-02-28T18:14:14;5.60;99.90